Mc Dougal, Arkansas
Current Conditions -  °F | °C
As of 8:35 AM on Monday 26 Jan 2015 (Local Time) from K4M9 Reporting Station
Overcast Overcast  
Wind Chill: 28°   Ceiling: 2100
Heat Index: 36°   Visibility: 10mi
Dew Point: 28°   Wind: 12mph
Humidity: 75%   Direction: 310°NW
Pressure: 30.12"   Gusts: NA
Location:  36.4376°N, 90.3867°W
Report Text: K4M9 261435Z AUTO 31010KT 10SM OVC021 02/M02 A3012 RMK AO2
Loading
Personal Weather Stations






























Interactive Weather Map New forecast layout! Learn more

10-Day Weather Forecast

Advertisements
Track Severe Weather on mobile